Time;durP1;ratioP1;P1;durP2;ratioP2;P2;SDS_P1;SDS_P2;PMS_P1;PMS_P2;Temp;Humidity;BMP_temperature;BMP_pressure;BME280_temperature;BME280_humidity;BME280_pressure;Samples;Min_cycle;Max_cycle;Signal;HPM_P1;HPM_P2
2022/07/17 00:02:22;;;;;;;4.50;1.10;;;;;;;22.42;34.20;101086.47;18356854;31;20109;-55
2022/07/17 00:12:25;;;;;;;2.25;1.10;;;;;;;21.98;35.59;101099.78;18356192;32;20133;-55
2022/07/17 00:22:30;;;;;;;2.37;1.30;;;;;;;21.80;35.82;101111.97;18357039;32;20108;-55
2022/07/17 00:32:34;;;;;;;1.45;1.17;;;;;;;21.48;37.18;101107.78;18355203;32;20097;-55
2022/07/17 00:42:39;;;;;;;3.90;1.30;;;;;;;21.01;38.42;101107.69;18358047;32;20129;-55
2022/07/17 00:52:42;;;;;;;3.35;1.30;;;;;;;20.75;39.59;101112.06;18364129;32;20120;-55
2022/07/17 01:02:48;;;;;;;2.28;1.65;;;;;;;20.24;40.57;101130.50;18363465;32;20457;-55
2022/07/17 01:12:51;;;;;;;3.17;1.10;;;;;;;19.73;41.70;101130.22;18363426;31;20386;-55
2022/07/17 01:22:57;;;;;;;3.47;1.17;;;;;;;19.36;42.80;101140.03;18364310;31;20101;-55
2022/07/17 01:33:01;;;;;;;3.20;1.52;;;;;;;19.11;43.20;101145.13;18362817;32;20156;-55
2022/07/17 01:43:05;;;;;;;2.17;1.33;;;;;;;19.33;42.82;101149.84;18363549;31;20093;-55
2022/07/17 01:53:09;;;;;;;2.42;1.50;;;;;;;19.16;44.17;101160.88;18361740;32;20093;-55
2022/07/17 02:03:13;;;;;;;2.58;1.17;;;;;;;19.24;44.38;101150.97;18361474;32;20101;-55
2022/07/17 02:13:16;;;;;;;2.42;1.25;;;;;;;19.02;44.78;101137.44;18360817;32;20137;-55
2022/07/17 02:23:21;;;;;;;1.85;1.20;;;;;;;18.95;44.93;101152.56;18360612;31;20142;-55
2022/07/17 02:33:24;;;;;;;2.50;1.20;;;;;;;18.22;47.19;101170.97;18360025;32;20097;-55
2022/07/17 02:43:29;;;;;;;4.05;1.50;;;;;;;17.86;47.87;101184.91;18359772;31;20717;-55
2022/07/17 02:53:33;;;;;;;2.42;1.30;;;;;;;17.59;48.02;101171.34;18359540;32;20369;-55
2022/07/17 03:03:37;;;;;;;1.65;1.20;;;;;;;17.38;48.51;101179.69;18358963;32;20103;-55
2022/07/17 03:13:41;;;;;;;5.20;1.65;;;;;;;16.79;50.41;101194.66;18358677;32;20093;-55
2022/07/17 03:23:45;;;;;;;1.62;1.17;;;;;;;16.31;51.60;101209.41;18358342;32;20089;-55
2022/07/17 03:33:48;;;;;;;1.90;1.25;;;;;;;16.30;51.75;101226.09;18358675;32;20142;-55
2022/07/17 03:43:53;;;;;;;3.20;1.20;;;;;;;16.35;51.77;101236.59;18357612;31;20109;-55
2022/07/17 03:53:56;;;;;;;2.72;1.30;;;;;;;16.49;52.70;101244.31;18376027;31;20092;-55
2022/07/17 04:04:01;;;;;;;2.60;1.37;;;;;;;16.72;52.87;101246.63;18624176;31;73888;-55
2022/07/17 04:14:04;;;;;;;2.83;1.58;;;;;;;17.12;51.60;101262.78;18625831;31;20701;-55
2022/07/17 04:24:09;;;;;;;1.87;1.00;;;;;;;18.16;49.97;101271.50;18625718;31;20141;-55
2022/07/17 04:34:12;;;;;;;2.12;1.35;;;;;;;18.49;49.72;101286.72;18625132;31;20472;-55
2022/07/17 04:44:16;;;;;;;2.47;1.20;;;;;;;19.02;48.62;101281.19;18624579;31;20086;-55
2022/07/17 04:54:20;;;;;;;1.95;1.10;;;;;;;20.20;45.91;101285.22;18622831;31;20342;-55
2022/07/17 05:04:24;;;;;;;1.08;0.90;;;;;;;21.18;41.37;101280.53;18623085;31;20416;-55
2022/07/17 05:14:30;;;;;;;2.28;0.85;;;;;;;21.78;38.96;101298.06;18622465;31;20095;-55
2022/07/17 05:24:35;;;;;;;1.33;0.45;;;;;;;22.16;35.54;101297.59;18622121;31;20133;-55
2022/07/17 05:34:38;;;;;;;0.85;0.60;;;;;;;22.70;34.47;101300.91;18630415;31;20454;-55
2022/07/17 05:44:42;;;;;;;0.65;0.45;;;;;;;23.01;32.26;101314.78;18630573;31;20368;-55
2022/07/17 05:54:45;;;;;;;1.15;0.70;;;;;;;22.87;32.50;101310.91;18630474;31;20095;-55
2022/07/17 06:04:50;;;;;;;1.50;0.60;;;;;;;23.13;31.05;101313.44;18629839;31;20186;-55
2022/07/17 06:14:53;;;;;;;1.05;0.60;;;;;;;23.93;29.98;101324.34;18628275;31;20092;-55
2022/07/17 06:25:05;;;;;;;1.60;0.50;;;;;;;24.50;28.03;101332.50;18629522;31;20103;-55
2022/07/17 06:35:09;;;;;;;1.85;0.60;;;;;;;23.62;29.63;101347.88;18627734;31;20117;-55
2022/07/17 06:45:13;;;;;;;0.93;0.40;;;;;;;24.64;26.96;101347.00;18627693;31;20080;-55
2022/07/17 06:55:17;;;;;;;1.15;0.60;;;;;;;24.60;26.86;101345.41;18629632;31;20110;-55
2022/07/17 07:05:22;;;;;;;2.15;0.70;;;;;;;24.83;26.30;101347.03;18628160;31;20438;-55
2022/07/17 07:15:25;;;;;;;0.60;0.52;;;;;;;25.34;24.40;101346.38;18628191;31;20103;-56
2022/07/17 07:25:30;;;;;;;2.37;0.52;;;;;;;25.01;25.19;101347.94;18627818;31;20136;-55
2022/07/17 07:35:33;;;;;;;3.65;0.70;;;;;;;25.79;24.01;101352.16;18626174;31;20096;-55
2022/07/17 07:45:38;;;;;;;3.03;0.40;;;;;;;25.89;24.43;101360.59;18627252;31;20186;-55
2022/07/17 07:55:41;;;;;;;0.85;0.32;;;;;;;26.16;24.92;101360.94;18626486;31;20142;-55
2022/07/17 08:05:46;;;;;;;1.58;0.52;;;;;;;26.38;23.02;101350.94;18626345;31;20105;-56
2022/07/17 08:15:49;;;;;;;0.60;0.40;;;;;;;26.04;23.65;101348.22;18626237;31;20723;-56
2022/07/17 08:25:54;;;;;;;0.62;0.60;;;;;;;26.81;23.92;101340.53;18445202;31;20100;-56
2022/07/17 08:35:57;;;;;;;3.45;0.50;;;;;;;25.98;24.87;101359.22;18355580;32;20089;-55
2022/07/17 08:46:02;;;;;;;4.22;0.62;;;;;;;26.20;23.97;101356.31;18354996;32;20089;-56
2022/07/17 08:56:05;;;;;;;2.35;0.70;;;;;;;26.58;23.54;101356.06;18354464;32;20489;-56
2022/07/17 09:06:19;;;;;;;1.55;0.32;;;;;;;27.78;22.80;101360.03;18412377;31;20112;-57
2022/07/17 09:16:23;;;;;;;3.70;0.65;;;;;;;28.00;21.40;101352.53;18363568;32;20425;-56
2022/07/17 09:26:28;;;;;;;2.83;0.80;;;;;;;27.75;21.90;101346.81;18362949;32;20094;-55
2022/07/17 09:36:32;;;;;;;1.65;0.77;;;;;;;27.87;22.51;101339.00;18362506;32;20134;-56
2022/07/17 09:46:37;;;;;;;1.00;0.43;;;;;;;28.68;20.99;101334.87;18361234;32;20108;-56
2022/07/17 09:56:40;;;;;;;2.17;0.62;;;;;;;28.20;21.59;101314.59;18361232;32;20113;-56
2022/07/17 10:06:45;;;;;;;0.77;0.30;;;;;;;29.09;20.28;101309.00;18627546;31;20721;-56
2022/07/17 10:16:48;;;;;;;0.95;0.40;;;;;;;30.15;18.92;101304.53;18629467;31;20127;-55
2022/07/17 10:26:53;;;;;;;0.68;0.37;;;;;;;31.21;17.57;101313.09;18629373;31;20092;-55
2022/07/17 10:36:56;;;;;;;0.57;0.37;;;;;;;30.99;18.45;101304.78;18628719;31;20132;-55
2022/07/17 10:47:01;;;;;;;1.67;0.50;;;;;;;30.79;18.19;101292.78;18628517;31;20321;-55
2022/07/17 10:57:05;;;;;;;1.20;0.50;;;;;;;31.95;17.27;101301.16;18628232;31;20122;-56
2022/07/17 11:07:10;;;;;;;0.88;0.50;;;;;;;31.79;17.18;101286.12;18362552;31;20548;-56
2022/07/17 11:17:13;;;;;;;3.05;0.65;;;;;;;31.64;17.31;101281.97;18358564;32;20412;-56
2022/07/17 11:27:23;;;;;;;1.17;0.55;;;;;;;31.67;16.18;101263.66;18357697;32;20085;-55
2022/07/17 11:37:30;;;;;;;1.55;0.47;;;;;;;31.28;16.21;101260.41;18358043;32;20097;-56
2022/07/17 11:47:34;;;;;;;1.37;0.62;;;;;;;31.62;16.50;101249.69;18410067;31;20119;-55
2022/07/17 11:57:47;;;;;;;2.45;0.80;;;;;;;31.74;16.02;101233.50;18411013;31;20433;-56
2022/07/17 12:07:51;;;;;;;2.37;0.40;;;;;;;31.83;15.71;101227.41;18356240;32;20082;-56
2022/07/17 12:17:54;;;;;;;2.05;0.50;;;;;;;31.86;15.75;101221.75;18340896;32;20127;-55
2022/07/17 12:27:59;;;;;;;0.62;0.50;;;;;;;32.55;14.83;101213.59;18354825;32;20112;-56
2022/07/17 12:38:02;;;;;;;1.58;0.60;;;;;;;31.33;16.01;101206.09;18407831;31;20489;-55
2022/07/17 12:48:07;;;;;;;1.02;0.50;;;;;;;33.12;14.57;101197.97;18348832;32;20189;-56
2022/07/17 12:58:10;;;;;;;1.87;0.50;;;;;;;33.20;14.11;101195.47;18400973;31;20104;-55
2022/07/17 13:08:14;;;;;;;0.60;0.40;;;;;;;33.78;14.15;101184.25;18350253;32;20123;-54
2022/07/17 13:18:18;;;;;;;1.58;0.60;;;;;;;33.86;13.76;101176.28;18348886;32;20085;-55
2022/07/17 13:28:22;;;;;;;0.47;0.40;;;;;;;33.49;13.55;101166.91;18349837;32;20437;-56
2022/07/17 13:38:26;;;;;;;0.93;0.47;;;;;;;32.97;13.93;101172.28;18349018;32;20102;-56
2022/07/17 13:48:30;;;;;;;2.40;0.50;;;;;;;33.85;13.78;101170.00;18352360;32;20087;-56
2022/07/17 13:58:34;;;;;;;3.40;0.55;;;;;;;33.81;13.55;101160.47;18356920;31;20085;-56
2022/07/17 14:08:38;;;;;;;0.82;0.30;;;;;;;33.44;13.94;101158.28;18409411;31;20124;-56
2022/07/17 14:18:57;;;;;;;2.03;0.40;;;;;;;33.18;13.43;101153.31;18407180;31;20181;-57
2022/07/17 14:29:03;;;;;;;0.85;0.50;;;;;;;31.49;14.19;101146.41;18355693;32;20101;-56
2022/07/17 14:39:07;;;;;;;1.12;0.50;;;;;;;31.98;15.35;101152.41;18411106;31;20377;-55
2022/07/17 14:49:11;;;;;;;1.00;0.40;;;;;;;32.22;14.41;101146.84;18356858;32;20185;-56
2022/07/17 14:59:15;;;;;;;0.70;0.60;;;;;;;32.25;14.17;101145.72;18354641;32;20093;-57
2022/07/17 15:09:20;;;;;;;2.25;0.57;;;;;;;32.22;14.05;101141.44;18358188;32;20133;-55
2022/07/17 15:19:24;;;;;;;0.60;0.43;;;;;;;32.16;14.90;101147.38;18356681;32;20115;-56
2022/07/17 15:29:29;;;;;;;2.72;0.60;;;;;;;32.25;14.08;101140.34;18357998;32;20457;-55
2022/07/17 15:39:32;;;;;;;1.85;0.65;;;;;;;31.55;14.08;101132.44;18354732;32;20093;-56
2022/07/17 15:49:37;;;;;;;2.17;0.50;;;;;;;30.96;15.07;101131.63;18354425;32;20137;-56
2022/07/17 15:59:40;;;;;;;3.65;0.60;;;;;;;31.07;15.29;101114.63;18353535;32;20109;-55
2022/07/17 16:09:45;;;;;;;1.60;0.45;;;;;;;31.25;15.15;101115.03;18351632;32;20156;-55
2022/07/17 16:19:48;;;;;;;1.75;0.70;;;;;;;30.95;15.09;101124.53;18350778;32;20109;-54
2022/07/17 16:29:53;;;;;;;1.87;0.60;;;;;;;30.42;15.49;101128.47;18352437;32;20115;-55
2022/07/17 16:39:56;;;;;;;1.85;0.60;;;;;;;30.18;15.74;101129.34;18405104;31;20124;-55
2022/07/17 16:50:00;;;;;;;2.05;0.70;;;;;;;30.22;15.35;101133.50;18404550;31;20115;-55
2022/07/17 17:00:04;;;;;;;2.15;0.70;;;;;;;30.04;16.28;101131.19;18403858;31;20098;-56
2022/07/17 17:10:11;;;;;;;1.45;0.57;;;;;;;29.97;15.98;101134.44;18350586;32;20089;-57
2022/07/17 17:20:15;;;;;;;1.90;0.43;;;;;;;29.79;16.35;101129.44;18351157;32;20113;-55
2022/07/17 17:30:19;;;;;;;1.52;0.50;;;;;;;29.50;16.78;101124.31;18358576;32;20365;-55
2022/07/17 17:40:23;;;;;;;2.22;0.77;;;;;;;29.25;17.18;101131.38;18412200;31;20145;-55
2022/07/17 17:50:28;;;;;;;0.75;0.50;;;;;;;29.06;17.46;101131.81;18357663;32;20109;-55
2022/07/17 18:00:32;;;;;;;0.82;0.45;;;;;;;28.59;18.38;101129.56;18411476;31;20093;-54
2022/07/17 18:10:37;;;;;;;1.02;0.40;;;;;;;28.32;18.66;101140.31;18408706;31;20109;-55
2022/07/17 18:20:40;;;;;;;1.02;0.45;;;;;;;28.25;18.67;101150.56;18410928;31;20135;-55
2022/07/17 18:30:45;;;;;;;0.85;0.47;;;;;;;27.84;19.07;101147.75;18413273;31;20128;-55
2022/07/17 18:40:51;;;;;;;0.47;0.35;;;;;;;27.53;19.78;101154.16;18408739;31;20115;-55
2022/07/17 18:50:56;;;;;;;1.12;0.40;;;;;;;27.52;19.82;101169.41;18410276;31;20089;-55
2022/07/17 19:00:59;;;;;;;3.10;1.30;;;;;;;27.01;20.25;101178.69;18356173;32;20145;-55
2022/07/17 19:11:04;;;;;;;2.17;0.47;;;;;;;26.93;20.20;101191.66;18356754;32;20086;-56
2022/07/17 19:21:07;;;;;;;0.80;0.32;;;;;;;26.65;20.71;101220.03;18408066;31;20116;-55
2022/07/17 19:31:13;;;;;;;2.75;0.62;;;;;;;26.51;21.36;101222.66;18408369;31;20376;-55
2022/07/17 19:41:17;;;;;;;4.43;1.20;;;;;;;26.15;22.49;101229.94;18405406;31;20753;-55
2022/07/17 19:51:21;;;;;;;0.77;0.43;;;;;;;25.62;23.63;101244.31;18355866;32;20112;-56
2022/07/17 20:01:28;;;;;;;3.03;0.70;;;;;;;25.14;24.41;101259.22;18408521;31;20108;-56
2022/07/17 20:11:33;;;;;;;1.98;0.80;;;;;;;24.55;26.96;101268.22;18354669;31;20117;-56
2022/07/17 20:21:36;;;;;;;2.33;0.70;;;;;;;24.09;28.22;101265.88;18409056;31;20101;-56
2022/07/17 20:31:41;;;;;;;1.80;0.50;;;;;;;23.67;29.24;101281.91;18408676;31;20445;-56
2022/07/17 20:41:45;;;;;;;1.65;0.75;;;;;;;23.11;30.58;101292.19;18406168;31;20107;-56
2022/07/17 20:51:50;;;;;;;1.15;0.55;;;;;;;22.70;31.29;101298.22;18406280;31;20096;-56
2022/07/17 21:01:53;;;;;;;1.92;0.80;;;;;;;22.21;31.81;101305.41;18358381;32;20144;-56
2022/07/17 21:11:57;;;;;;;0.73;0.70;;;;;;;21.75;32.78;101311.44;18355397;31;20101;-56
2022/07/17 21:22:01;;;;;;;1.70;0.98;;;;;;;21.40;33.51;101305.50;18413651;31;20119;-56
2022/07/17 21:32:06;;;;;;;2.45;1.15;;;;;;;21.25;33.86;101312.19;18360730;32;20093;-56
2022/07/17 21:42:09;;;;;;;3.62;1.00;;;;;;;20.70;35.83;101326.25;18360802;32;20093;-57
2022/07/17 21:52:15;;;;;;;2.10;1.23;;;;;;;20.54;36.68;101334.66;18360329;32;20181;-56
2022/07/17 22:02:18;;;;;;;2.20;1.00;;;;;;;20.23;38.61;101346.13;18361284;31;20101;-56
2022/07/17 22:12:24;;;;;;;0.80;0.60;;;;;;;20.15;37.93;101351.63;18412193;31;20504;-56
2022/07/17 22:22:27;;;;;;;2.95;0.98;;;;;;;19.99;38.09;101360.91;18357951;32;20425;-56
2022/07/17 22:32:33;;;;;;;2.42;0.82;;;;;;;19.61;39.11;101356.53;18357206;32;20108;-56
2022/07/17 22:42:36;;;;;;;2.72;0.98;;;;;;;19.46;39.63;101365.72;18357003;32;20365;-56
2022/07/17 22:52:40;;;;;;;2.08;0.82;;;;;;;19.23;40.67;101368.91;18356416;32;20127;-56
2022/07/17 23:02:44;;;;;;;0.82;0.70;;;;;;;19.03;40.91;101374.66;18356931;31;20097;-56
2022/07/17 23:12:49;;;;;;;5.43;1.65;;;;;;;18.67;41.90;101363.00;18355557;32;20156;-56
2022/07/17 23:22:52;;;;;;;3.40;0.88;;;;;;;18.42;42.62;101379.37;18407275;31;20116;-56
2022/07/17 23:32:57;;;;;;;4.00;1.12;;;;;;;18.22;43.29;101381.53;18354941;32;20686;-56
2022/07/17 23:43:00;;;;;;;1.30;0.95;;;;;;;18.16;43.95;101383.38;18354980;32;20440;-56
2022/07/17 23:53:05;;;;;;;1.77;0.90;;;;;;;17.86;44.52;101390.91;18408223;31;20522;-55
